sensor_id;sensor_type;location;lat;lon;timestamp;P1;durP1;ratioP1;P2;durP2;ratioP2
11283;SDS011;5698;47.332;11.180;2022-08-05T00:02:04;2.37;;;2.13;;
11283;SDS011;5698;47.332;11.180;2022-08-05T00:04:31;2.10;;;2.00;;
11283;SDS011;5698;47.332;11.180;2022-08-05T00:06:58;2.50;;;2.30;;
11283;SDS011;5698;47.332;11.180;2022-08-05T00:09:26;2.57;;;2.00;;
11283;SDS011;5698;47.332;11.180;2022-08-05T00:11:53;2.37;;;2.17;;
11283;SDS011;5698;47.332;11.180;2022-08-05T00:14:20;2.33;;;1.87;;
11283;SDS011;5698;47.332;11.180;2022-08-05T00:16:47;2.33;;;2.13;;
11283;SDS011;5698;47.332;11.180;2022-08-05T00:19:14;2.03;;;1.83;;
11283;SDS011;5698;47.332;11.180;2022-08-05T00:21:41;3.13;;;1.60;;
11283;SDS011;5698;47.332;11.180;2022-08-05T00:24:08;1.80;;;1.70;;
11283;SDS011;5698;47.332;11.180;2022-08-05T00:26:37;5.17;;;1.97;;
11283;SDS011;5698;47.332;11.180;2022-08-05T00:29:04;1.73;;;1.60;;
11283;SDS011;5698;47.332;11.180;2022-08-05T00:31:31;2.90;;;1.77;;
11283;SDS011;5698;47.332;11.180;2022-08-05T00:33:58;1.80;;;1.70;;
11283;SDS011;5698;47.332;11.180;2022-08-05T00:36:25;4.20;;;1.67;;
11283;SDS011;5698;47.332;11.180;2022-08-05T00:38:52;2.07;;;1.73;;
11283;SDS011;5698;47.332;11.180;2022-08-05T00:41:28;1.80;;;1.50;;
11283;SDS011;5698;47.332;11.180;2022-08-05T00:43:58;3.67;;;1.80;;
11283;SDS011;5698;47.332;11.180;2022-08-05T00:46:25;1.97;;;1.73;;
11283;SDS011;5698;47.332;11.180;2022-08-05T00:48:53;1.80;;;1.70;;
11283;SDS011;5698;47.332;11.180;2022-08-05T00:51:20;2.17;;;2.00;;
11283;SDS011;5698;47.332;11.180;2022-08-05T00:53:47;2.40;;;2.20;;
11283;SDS011;5698;47.332;11.180;2022-08-05T00:56:15;2.20;;;2.00;;
11283;SDS011;5698;47.332;11.180;2022-08-05T00:58:43;3.30;;;2.03;;
11283;SDS011;5698;47.332;11.180;2022-08-05T01:01:12;1.90;;;1.70;;
11283;SDS011;5698;47.332;11.180;2022-08-05T01:03:40;1.97;;;1.87;;
11283;SDS011;5698;47.332;11.180;2022-08-05T01:06:07;1.97;;;1.73;;
11283;SDS011;5698;47.332;11.180;2022-08-05T01:08:35;3.17;;;2.27;;
11283;SDS011;5698;47.332;11.180;2022-08-05T01:11:03;1.83;;;1.73;;
11283;SDS011;5698;47.332;11.180;2022-08-05T01:13:35;1.83;;;1.73;;
11283;SDS011;5698;47.332;11.180;2022-08-05T01:16:09;2.93;;;1.97;;
11283;SDS011;5698;47.332;11.180;2022-08-05T01:18:45;2.20;;;1.90;;
11283;SDS011;5698;47.332;11.180;2022-08-05T01:21:22;2.17;;;1.70;;
11283;SDS011;5698;47.332;11.180;2022-08-05T01:24:12;2.50;;;2.00;;
11283;SDS011;5698;47.332;11.180;2022-08-05T01:26:58;2.03;;;1.83;;
11283;SDS011;5698;47.332;11.180;2022-08-05T01:29:35;1.90;;;1.60;;
11283;SDS011;5698;47.332;11.180;2022-08-05T01:32:08;1.80;;;1.70;;
11283;SDS011;5698;47.332;11.180;2022-08-05T01:34:37;1.70;;;1.60;;
11283;SDS011;5698;47.332;11.180;2022-08-05T01:37:15;2.83;;;1.90;;
11283;SDS011;5698;47.332;11.180;2022-08-05T01:39:46;1.77;;;1.67;;
11283;SDS011;5698;47.332;11.180;2022-08-05T01:42:18;2.50;;;1.67;;
11283;SDS011;5698;47.332;11.180;2022-08-05T01:44:49;1.63;;;1.53;;
11283;SDS011;5698;47.332;11.180;2022-08-05T01:47:18;2.10;;;1.90;;
11283;SDS011;5698;47.332;11.180;2022-08-05T01:49:46;1.90;;;1.80;;
11283;SDS011;5698;47.332;11.180;2022-08-05T01:52:15;2.20;;;2.00;;
11283;SDS011;5698;47.332;11.180;2022-08-05T01:54:45;2.17;;;1.93;;
11283;SDS011;5698;47.332;11.180;2022-08-05T01:57:17;2.10;;;2.00;;
11283;SDS011;5698;47.332;11.180;2022-08-05T01:59:51;1.73;;;1.63;;
11283;SDS011;5698;47.332;11.180;2022-08-05T02:02:23;2.07;;;1.70;;
11283;SDS011;5698;47.332;11.180;2022-08-05T02:04:52;3.17;;;1.90;;
11283;SDS011;5698;47.332;11.180;2022-08-05T02:07:22;2.23;;;2.03;;
11283;SDS011;5698;47.332;11.180;2022-08-05T02:09:49;2.20;;;2.10;;
11283;SDS011;5698;47.332;11.180;2022-08-05T02:12:17;2.20;;;1.97;;
11283;SDS011;5698;47.332;11.180;2022-08-05T02:14:56;2.53;;;2.10;;
11283;SDS011;5698;47.332;11.180;2022-08-05T02:17:30;2.37;;;2.17;;
11283;SDS011;5698;47.332;11.180;2022-08-05T02:20:02;2.47;;;1.93;;
11283;SDS011;5698;47.332;11.180;2022-08-05T02:22:34;1.77;;;1.67;;
11283;SDS011;5698;47.332;11.180;2022-08-05T02:25:07;2.37;;;2.17;;
11283;SDS011;5698;47.332;11.180;2022-08-05T02:27:37;2.13;;;1.93;;
11283;SDS011;5698;47.332;11.180;2022-08-05T02:30:08;2.53;;;2.10;;
11283;SDS011;5698;47.332;11.180;2022-08-05T02:32:37;1.97;;;1.87;;
11283;SDS011;5698;47.332;11.180;2022-08-05T02:35:08;2.33;;;2.13;;
11283;SDS011;5698;47.332;11.180;2022-08-05T02:37:37;3.93;;;2.20;;
11283;SDS011;5698;47.332;11.180;2022-08-05T02:40:06;3.17;;;2.30;;
11283;SDS011;5698;47.332;11.180;2022-08-05T02:42:35;2.30;;;2.10;;
11283;SDS011;5698;47.332;11.180;2022-08-05T02:45:04;2.33;;;2.13;;
11283;SDS011;5698;47.332;11.180;2022-08-05T02:47:35;2.17;;;2.07;;
11283;SDS011;5698;47.332;11.180;2022-08-05T02:50:03;2.53;;;2.33;;
11283;SDS011;5698;47.332;11.180;2022-08-05T02:52:32;2.33;;;2.13;;
11283;SDS011;5698;47.332;11.180;2022-08-05T02:54:59;2.47;;;2.27;;
11283;SDS011;5698;47.332;11.180;2022-08-05T02:57:27;2.83;;;2.63;;
11283;SDS011;5698;47.332;11.180;2022-08-05T02:59:55;3.60;;;2.20;;
11283;SDS011;5698;47.332;11.180;2022-08-05T03:02:25;2.70;;;2.50;;
11283;SDS011;5698;47.332;11.180;2022-08-05T03:04:55;2.13;;;2.03;;
11283;SDS011;5698;47.332;11.180;2022-08-05T03:07:23;3.03;;;2.63;;
11283;SDS011;5698;47.332;11.180;2022-08-05T03:09:51;2.67;;;2.20;;
11283;SDS011;5698;47.332;11.180;2022-08-05T03:12:30;2.83;;;2.63;;
11283;SDS011;5698;47.332;11.180;2022-08-05T03:14:58;2.63;;;2.43;;
11283;SDS011;5698;47.332;11.180;2022-08-05T03:17:27;2.67;;;2.47;;
11283;SDS011;5698;47.332;11.180;2022-08-05T03:19:54;2.30;;;2.20;;
11283;SDS011;5698;47.332;11.180;2022-08-05T03:22:21;4.27;;;2.80;;
11283;SDS011;5698;47.332;11.180;2022-08-05T03:24:48;2.83;;;2.57;;
11283;SDS011;5698;47.332;11.180;2022-08-05T03:27:17;2.47;;;2.27;;
11283;SDS011;5698;47.332;11.180;2022-08-05T03:29:45;2.47;;;2.27;;
11283;SDS011;5698;47.332;11.180;2022-08-05T03:32:12;2.53;;;2.33;;
11283;SDS011;5698;47.332;11.180;2022-08-05T03:34:41;2.50;;;2.23;;
11283;SDS011;5698;47.332;11.180;2022-08-05T03:37:10;2.73;;;2.30;;
11283;SDS011;5698;47.332;11.180;2022-08-05T03:39:37;3.27;;;2.97;;
11283;SDS011;5698;47.332;11.180;2022-08-05T03:42:16;2.40;;;2.20;;
11283;SDS011;5698;47.332;11.180;2022-08-05T03:44:43;2.77;;;2.57;;
11283;SDS011;5698;47.332;11.180;2022-08-05T03:47:10;3.03;;;2.63;;
11283;SDS011;5698;47.332;11.180;2022-08-05T03:49:37;2.70;;;2.50;;
11283;SDS011;5698;47.332;11.180;2022-08-05T03:52:08;2.83;;;2.63;;
11283;SDS011;5698;47.332;11.180;2022-08-05T03:54:39;2.67;;;2.13;;
11283;SDS011;5698;47.332;11.180;2022-08-05T03:57:14;2.90;;;2.00;;
11283;SDS011;5698;47.332;11.180;2022-08-05T03:59:45;2.80;;;2.50;;
11283;SDS011;5698;47.332;11.180;2022-08-05T04:02:14;2.50;;;2.30;;
11283;SDS011;5698;47.332;11.180;2022-08-05T04:04:44;2.33;;;2.20;;
11283;SDS011;5698;47.332;11.180;2022-08-05T04:07:13;2.70;;;2.50;;
11283;SDS011;5698;47.332;11.180;2022-08-05T04:09:41;5.00;;;2.07;;
11283;SDS011;5698;47.332;11.180;2022-08-05T04:12:08;2.73;;;2.53;;
11283;SDS011;5698;47.332;11.180;2022-08-05T04:14:35;2.73;;;2.50;;
11283;SDS011;5698;47.332;11.180;2022-08-05T04:17:02;2.60;;;2.40;;
11283;SDS011;5698;47.332;11.180;2022-08-05T04:19:29;3.20;;;2.70;;
11283;SDS011;5698;47.332;11.180;2022-08-05T04:21:56;3.30;;;2.43;;
11283;SDS011;5698;47.332;11.180;2022-08-05T04:24:25;2.73;;;2.53;;
11283;SDS011;5698;47.332;11.180;2022-08-05T04:26:52;2.10;;;2.00;;
11283;SDS011;5698;47.332;11.180;2022-08-05T04:29:19;2.70;;;2.50;;
11283;SDS011;5698;47.332;11.180;2022-08-05T04:31:46;2.80;;;2.60;;
11283;SDS011;5698;47.332;11.180;2022-08-05T04:34:13;2.87;;;2.33;;
11283;SDS011;5698;47.332;11.180;2022-08-05T04:36:40;2.47;;;2.27;;
11283;SDS011;5698;47.332;11.180;2022-08-05T04:39:07;2.33;;;2.13;;
11283;SDS011;5698;47.332;11.180;2022-08-05T04:41:36;2.60;;;2.40;;
11283;SDS011;5698;47.332;11.180;2022-08-05T04:44:03;2.60;;;2.40;;
11283;SDS011;5698;47.332;11.180;2022-08-05T04:46:30;3.50;;;2.60;;
11283;SDS011;5698;47.332;11.180;2022-08-05T04:48:57;2.57;;;2.37;;
11283;SDS011;5698;47.332;11.180;2022-08-05T04:51:24;3.20;;;3.00;;
11283;SDS011;5698;47.332;11.180;2022-08-05T04:53:51;2.80;;;2.60;;
11283;SDS011;5698;47.332;11.180;2022-08-05T04:56:18;2.50;;;2.30;;
11283;SDS011;5698;47.332;11.180;2022-08-05T04:58:46;2.47;;;2.37;;
11283;SDS011;5698;47.332;11.180;2022-08-05T05:01:13;2.30;;;2.20;;
11283;SDS011;5698;47.332;11.180;2022-08-05T05:03:40;2.60;;;2.40;;
11283;SDS011;5698;47.332;11.180;2022-08-05T05:06:08;2.70;;;2.17;;
11283;SDS011;5698;47.332;11.180;2022-08-05T05:08:36;2.33;;;2.13;;
11283;SDS011;5698;47.332;11.180;2022-08-05T05:11:03;2.97;;;2.77;;
11283;SDS011;5698;47.332;11.180;2022-08-05T05:13:31;2.63;;;2.43;;
11283;SDS011;5698;47.332;11.180;2022-08-05T05:15:59;4.53;;;4.13;;
11283;SDS011;5698;47.332;11.180;2022-08-05T05:18:26;5.23;;;3.87;;
11283;SDS011;5698;47.332;11.180;2022-08-05T05:20:53;5.20;;;4.10;;
11283;SDS011;5698;47.332;11.180;2022-08-05T05:23:20;5.23;;;3.27;;
11283;SDS011;5698;47.332;11.180;2022-08-05T05:25:47;4.13;;;2.47;;
11283;SDS011;5698;47.332;11.180;2022-08-05T05:28:14;3.07;;;2.83;;
11283;SDS011;5698;47.332;11.180;2022-08-05T05:30:41;3.00;;;2.80;;
11283;SDS011;5698;47.332;11.180;2022-08-05T05:33:10;3.40;;;3.10;;
11283;SDS011;5698;47.332;11.180;2022-08-05T05:35:37;4.50;;;3.13;;
11283;SDS011;5698;47.332;11.180;2022-08-05T05:38:04;3.93;;;3.10;;
11283;SDS011;5698;47.332;11.180;2022-08-05T05:40:32;4.63;;;3.37;;
11283;SDS011;5698;47.332;11.180;2022-08-05T05:42:59;5.30;;;3.20;;
11283;SDS011;5698;47.332;11.180;2022-08-05T05:45:27;5.30;;;3.07;;
11283;SDS011;5698;47.332;11.180;2022-08-05T05:47:56;3.13;;;2.87;;
11283;SDS011;5698;47.332;11.180;2022-08-05T05:50:24;3.47;;;3.17;;
11283;SDS011;5698;47.332;11.180;2022-08-05T05:52:52;3.97;;;2.70;;
11283;SDS011;5698;47.332;11.180;2022-08-05T05:55:19;3.63;;;2.97;;
11283;SDS011;5698;47.332;11.180;2022-08-05T05:57:46;3.13;;;2.80;;
11283;SDS011;5698;47.332;11.180;2022-08-05T06:00:14;2.83;;;2.53;;
11283;SDS011;5698;47.332;11.180;2022-08-05T06:02:42;3.57;;;2.73;;
11283;SDS011;5698;47.332;11.180;2022-08-05T06:05:12;2.63;;;2.43;;
11283;SDS011;5698;47.332;11.180;2022-08-05T06:07:42;2.63;;;2.40;;
11283;SDS011;5698;47.332;11.180;2022-08-05T06:10:09;2.80;;;2.60;;
11283;SDS011;5698;47.332;11.180;2022-08-05T06:12:37;2.90;;;2.70;;
11283;SDS011;5698;47.332;11.180;2022-08-05T06:15:05;2.60;;;2.37;;
11283;SDS011;5698;47.332;11.180;2022-08-05T06:17:33;2.70;;;2.50;;
11283;SDS011;5698;47.332;11.180;2022-08-05T06:20:00;2.90;;;2.67;;
11283;SDS011;5698;47.332;11.180;2022-08-05T06:22:28;2.90;;;2.60;;
11283;SDS011;5698;47.332;11.180;2022-08-05T06:24:57;2.77;;;2.50;;
11283;SDS011;5698;47.332;11.180;2022-08-05T06:27:24;2.90;;;2.60;;
11283;SDS011;5698;47.332;11.180;2022-08-05T06:29:51;3.27;;;2.83;;
11283;SDS011;5698;47.332;11.180;2022-08-05T06:32:18;4.10;;;3.00;;
11283;SDS011;5698;47.332;11.180;2022-08-05T06:34:45;2.70;;;2.50;;
11283;SDS011;5698;47.332;11.180;2022-08-05T06:37:12;4.53;;;3.03;;
11283;SDS011;5698;47.332;11.180;2022-08-05T06:39:40;3.00;;;2.50;;
11283;SDS011;5698;47.332;11.180;2022-08-05T06:42:09;2.97;;;2.73;;
11283;SDS011;5698;47.332;11.180;2022-08-05T06:44:37;2.60;;;2.40;;
11283;SDS011;5698;47.332;11.180;2022-08-05T06:47:04;2.83;;;2.53;;
11283;SDS011;5698;47.332;11.180;2022-08-05T06:49:31;2.80;;;2.60;;
11283;SDS011;5698;47.332;11.180;2022-08-05T06:51:58;2.70;;;2.50;;
11283;SDS011;5698;47.332;11.180;2022-08-05T06:54:25;4.23;;;2.40;;
11283;SDS011;5698;47.332;11.180;2022-08-05T06:56:52;2.60;;;2.40;;
11283;SDS011;5698;47.332;11.180;2022-08-05T06:59:21;3.30;;;2.70;;
11283;SDS011;5698;47.332;11.180;2022-08-05T07:01:48;2.70;;;2.50;;
11283;SDS011;5698;47.332;11.180;2022-08-05T07:04:15;8.03;;;2.83;;
11283;SDS011;5698;47.332;11.180;2022-08-05T07:06:42;2.73;;;2.53;;
11283;SDS011;5698;47.332;11.180;2022-08-05T07:09:09;3.03;;;2.47;;
11283;SDS011;5698;47.332;11.180;2022-08-05T07:11:36;3.30;;;2.67;;
11283;SDS011;5698;47.332;11.180;2022-08-05T07:14:03;2.90;;;2.70;;
11283;SDS011;5698;47.332;11.180;2022-08-05T07:16:49;3.00;;;2.30;;
11283;SDS011;5698;47.332;11.180;2022-08-05T07:19:17;3.10;;;2.63;;
11283;SDS011;5698;47.332;11.180;2022-08-05T07:21:45;2.70;;;2.50;;
11283;SDS011;5698;47.332;11.180;2022-08-05T07:24:13;3.30;;;2.53;;
11283;SDS011;5698;47.332;11.180;2022-08-05T07:26:41;2.80;;;2.50;;
11283;SDS011;5698;47.332;11.180;2022-08-05T07:29:09;3.27;;;2.40;;
11283;SDS011;5698;47.332;11.180;2022-08-05T07:31:36;2.77;;;2.57;;
11283;SDS011;5698;47.332;11.180;2022-08-05T07:34:05;2.70;;;2.50;;
11283;SDS011;5698;47.332;11.180;2022-08-05T07:36:32;3.90;;;2.87;;
11283;SDS011;5698;47.332;11.180;2022-08-05T07:39:00;3.10;;;2.33;;
11283;SDS011;5698;47.332;11.180;2022-08-05T07:41:27;2.83;;;2.57;;
11283;SDS011;5698;47.332;11.180;2022-08-05T07:43:55;2.40;;;2.20;;
11283;SDS011;5698;47.332;11.180;2022-08-05T07:46:23;2.80;;;2.60;;
11283;SDS011;5698;47.332;11.180;2022-08-05T07:48:51;2.43;;;2.23;;
11283;SDS011;5698;47.332;11.180;2022-08-05T07:51:20;2.70;;;2.50;;
11283;SDS011;5698;47.332;11.180;2022-08-05T07:53:47;2.77;;;2.57;;
11283;SDS011;5698;47.332;11.180;2022-08-05T07:56:14;2.47;;;2.27;;
11283;SDS011;5698;47.332;11.180;2022-08-05T07:58:41;2.40;;;2.20;;
11283;SDS011;5698;47.332;11.180;2022-08-05T08:01:08;2.90;;;2.70;;
11283;SDS011;5698;47.332;11.180;2022-08-05T08:03:35;3.43;;;2.50;;
11283;SDS011;5698;47.332;11.180;2022-08-05T08:06:02;2.97;;;2.78;;
11283;SDS011;5698;47.332;11.180;2022-08-05T08:08:31;3.10;;;2.80;;
11283;SDS011;5698;47.332;11.180;2022-08-05T08:10:58;4.23;;;2.60;;
11283;SDS011;5698;47.332;11.180;2022-08-05T08:13:25;2.37;;;2.17;;
11283;SDS011;5698;47.332;11.180;2022-08-05T08:15:52;2.72;;;2.53;;
11283;SDS011;5698;47.332;11.180;2022-08-05T08:18:19;2.95;;;2.65;;
11283;SDS011;5698;47.332;11.180;2022-08-05T08:20:46;2.75;;;2.50;;
11283;SDS011;5698;47.332;11.180;2022-08-05T08:23:15;2.75;;;2.55;;
11283;SDS011;5698;47.332;11.180;2022-08-05T08:25:44;2.90;;;2.13;;
11283;SDS011;5698;47.332;11.180;2022-08-05T08:28:11;2.60;;;2.40;;
11283;SDS011;5698;47.332;11.180;2022-08-05T08:30:39;2.88;;;2.30;;
11283;SDS011;5698;47.332;11.180;2022-08-05T08:33:06;2.80;;;2.60;;
11283;SDS011;5698;47.332;11.180;2022-08-05T08:35:34;3.55;;;2.80;;
11283;SDS011;5698;47.332;11.180;2022-08-05T08:38:01;2.60;;;2.40;;
11283;SDS011;5698;47.332;11.180;2022-08-05T08:40:29;2.70;;;2.50;;
11283;SDS011;5698;47.332;11.180;2022-08-05T08:43:00;3.00;;;2.65;;
11283;SDS011;5698;47.332;11.180;2022-08-05T08:45:28;2.80;;;2.10;;
11283;SDS011;5698;47.332;11.180;2022-08-05T08:47:57;2.17;;;2.03;;
11283;SDS011;5698;47.332;11.180;2022-08-05T08:50:27;2.63;;;2.42;;
11283;SDS011;5698;47.332;11.180;2022-08-05T08:52:58;2.35;;;2.15;;
11283;SDS011;5698;47.332;11.180;2022-08-05T08:55:29;3.33;;;2.35;;
11283;SDS011;5698;47.332;11.180;2022-08-05T08:57:57;2.40;;;2.10;;
11283;SDS011;5698;47.332;11.180;2022-08-05T09:00:26;3.60;;;2.47;;
11283;SDS011;5698;47.332;11.180;2022-08-05T09:02:54;2.80;;;2.15;;
11283;SDS011;5698;47.332;11.180;2022-08-05T09:05:22;3.20;;;2.90;;
11283;SDS011;5698;47.332;11.180;2022-08-05T09:07:49;2.42;;;2.22;;
11283;SDS011;5698;47.332;11.180;2022-08-05T09:10:17;2.58;;;2.38;;
11283;SDS011;5698;47.332;11.180;2022-08-05T09:12:44;2.60;;;2.40;;
11283;SDS011;5698;47.332;11.180;2022-08-05T09:15:13;4.20;;;2.30;;
11283;SDS011;5698;47.332;11.180;2022-08-05T09:17:40;2.88;;;2.67;;
11283;SDS011;5698;47.332;11.180;2022-08-05T09:20:09;3.90;;;2.47;;
11283;SDS011;5698;47.332;11.180;2022-08-05T09:25:30;2.30;;;2.10;;
11283;SDS011;5698;47.332;11.180;2022-08-05T09:28:04;2.78;;;2.40;;
11283;SDS011;5698;47.332;11.180;2022-08-05T09:30:42;3.57;;;2.53;;
11283;SDS011;5698;47.332;11.180;2022-08-05T09:33:10;3.43;;;2.30;;
11283;SDS011;5698;47.332;11.180;2022-08-05T09:35:38;3.47;;;2.43;;
11283;SDS011;5698;47.332;11.180;2022-08-05T09:38:28;2.93;;;2.40;;
11283;SDS011;5698;47.332;11.180;2022-08-05T09:41:00;3.30;;;2.40;;
11283;SDS011;5698;47.332;11.180;2022-08-05T09:43:30;4.93;;;2.90;;
11283;SDS011;5698;47.332;11.180;2022-08-05T09:46:00;30.73;;;8.27;;
11283;SDS011;5698;47.332;11.180;2022-08-05T09:48:29;3.97;;;2.50;;
11283;SDS011;5698;47.332;11.180;2022-08-05T09:50:58;2.42;;;2.10;;
11283;SDS011;5698;47.332;11.180;2022-08-05T09:53:26;2.95;;;2.50;;
11283;SDS011;5698;47.332;11.180;2022-08-05T09:55:55;7.95;;;3.25;;
11283;SDS011;5698;47.332;11.180;2022-08-05T09:58:24;7.15;;;3.55;;
11283;SDS011;5698;47.332;11.180;2022-08-05T10:01:00;2.58;;;2.38;;
11283;SDS011;5698;47.332;11.180;2022-08-05T10:03:29;2.72;;;2.53;;
11283;SDS011;5698;47.332;11.180;2022-08-05T10:06:03;2.65;;;2.20;;
11283;SDS011;5698;47.332;11.180;2022-08-05T10:08:32;3.50;;;2.58;;
11283;SDS011;5698;47.332;11.180;2022-08-05T10:11:01;3.25;;;2.40;;
11283;SDS011;5698;47.332;11.180;2022-08-05T10:13:31;3.35;;;2.45;;
11283;SDS011;5698;47.332;11.180;2022-08-05T10:16:02;2.58;;;2.38;;
11283;SDS011;5698;47.332;11.180;2022-08-05T10:18:30;4.13;;;2.67;;
11283;SDS011;5698;47.332;11.180;2022-08-05T10:20:59;4.93;;;2.40;;
11283;SDS011;5698;47.332;11.180;2022-08-05T10:23:28;4.32;;;2.30;;
11283;SDS011;5698;47.332;11.180;2022-08-05T10:25:57;4.28;;;2.47;;
11283;SDS011;5698;47.332;11.180;2022-08-05T10:28:26;2.90;;;2.25;;
11283;SDS011;5698;47.332;11.180;2022-08-05T10:30:54;2.88;;;2.30;;
11283;SDS011;5698;47.332;11.180;2022-08-05T10:33:23;4.45;;;2.38;;
11283;SDS011;5698;47.332;11.180;2022-08-05T10:35:53;2.10;;;2.00;;
11283;SDS011;5698;47.332;11.180;2022-08-05T10:38:21;2.70;;;2.50;;
11283;SDS011;5698;47.332;11.180;2022-08-05T10:40:51;4.10;;;2.47;;
11283;SDS011;5698;47.332;11.180;2022-08-05T10:43:27;2.80;;;2.60;;
11283;SDS011;5698;47.332;11.180;2022-08-05T10:46:03;2.90;;;2.70;;
11283;SDS011;5698;47.332;11.180;2022-08-05T10:48:34;3.75;;;2.30;;
11283;SDS011;5698;47.332;11.180;2022-08-05T10:51:06;3.13;;;2.70;;
11283;SDS011;5698;47.332;11.180;2022-08-05T10:53:35;7.38;;;2.58;;
11283;SDS011;5698;47.332;11.180;2022-08-05T10:56:07;2.85;;;2.65;;
11283;SDS011;5698;47.332;11.180;2022-08-05T10:58:35;3.75;;;2.83;;
11283;SDS011;5698;47.332;11.180;2022-08-05T11:01:13;3.70;;;2.50;;
11283;SDS011;5698;47.332;11.180;2022-08-05T11:06:30;3.42;;;2.20;;
11283;SDS011;5698;47.332;11.180;2022-08-05T11:11:46;4.90;;;2.60;;
11283;SDS011;5698;47.332;11.180;2022-08-05T11:14:21;2.53;;;2.33;;
11283;SDS011;5698;47.332;11.180;2022-08-05T11:19:55;3.28;;;2.30;;
11283;SDS011;5698;47.332;11.180;2022-08-05T11:22:36;4.38;;;2.58;;
11283;SDS011;5698;47.332;11.180;2022-08-05T11:33:51;3.78;;;2.50;;
11283;SDS011;5698;47.332;11.180;2022-08-05T11:39:11;3.90;;;2.13;;
11283;SDS011;5698;47.332;11.180;2022-08-05T11:41:39;4.32;;;2.63;;
11283;SDS011;5698;47.332;11.180;2022-08-05T11:44:08;2.60;;;2.40;;
11283;SDS011;5698;47.332;11.180;2022-08-05T11:46:39;2.75;;;2.55;;
11283;SDS011;5698;47.332;11.180;2022-08-05T11:49:07;5.55;;;2.70;;
11283;SDS011;5698;47.332;11.180;2022-08-05T11:51:37;2.75;;;2.55;;
11283;SDS011;5698;47.332;11.180;2022-08-05T11:54:09;2.42;;;2.22;;
11283;SDS011;5698;47.332;11.180;2022-08-05T11:56:44;3.63;;;2.58;;
11283;SDS011;5698;47.332;11.180;2022-08-05T11:59:13;3.13;;;2.58;;
11283;SDS011;5698;47.332;11.180;2022-08-05T12:01:51;3.63;;;3.10;;
11283;SDS011;5698;47.332;11.180;2022-08-05T12:04:23;4.53;;;2.60;;
11283;SDS011;5698;47.332;11.180;2022-08-05T12:06:53;7.18;;;2.83;;
11283;SDS011;5698;47.332;11.180;2022-08-05T12:09:24;4.00;;;2.67;;
11283;SDS011;5698;47.332;11.180;2022-08-05T12:11:54;9.10;;;2.90;;
11283;SDS011;5698;47.332;11.180;2022-08-05T12:14:21;4.43;;;3.10;;
11283;SDS011;5698;47.332;11.180;2022-08-05T12:16:49;4.87;;;3.20;;
11283;SDS011;5698;47.332;11.180;2022-08-05T12:19:16;3.40;;;3.10;;
11283;SDS011;5698;47.332;11.180;2022-08-05T12:21:47;5.50;;;3.10;;
11283;SDS011;5698;47.332;11.180;2022-08-05T12:24:17;4.07;;;3.17;;
11283;SDS011;5698;47.332;11.180;2022-08-05T12:26:46;8.03;;;3.70;;
11283;SDS011;5698;47.332;11.180;2022-08-05T12:29:15;4.67;;;3.50;;
11283;SDS011;5698;47.332;11.180;2022-08-05T12:31:44;3.93;;;3.13;;
11283;SDS011;5698;47.332;11.180;2022-08-05T12:34:13;3.87;;;3.50;;
11283;SDS011;5698;47.332;11.180;2022-08-05T12:36:41;4.67;;;3.47;;
11283;SDS011;5698;47.332;11.180;2022-08-05T12:39:09;8.60;;;3.40;;
11283;SDS011;5698;47.332;11.180;2022-08-05T12:41:39;4.60;;;3.60;;
11283;SDS011;5698;47.332;11.180;2022-08-05T12:44:07;4.57;;;3.53;;
11283;SDS011;5698;47.332;11.180;2022-08-05T12:46:37;5.63;;;4.77;;
11283;SDS011;5698;47.332;11.180;2022-08-05T12:49:06;5.50;;;4.60;;
11283;SDS011;5698;47.332;11.180;2022-08-05T12:51:45;5.70;;;5.07;;
11283;SDS011;5698;47.332;11.180;2022-08-05T12:54:17;9.23;;;5.07;;
11283;SDS011;5698;47.332;11.180;2022-08-05T12:56:48;5.73;;;5.13;;
11283;SDS011;5698;47.332;11.180;2022-08-05T12:59:17;8.70;;;5.60;;
11283;SDS011;5698;47.332;11.180;2022-08-05T13:01:52;6.07;;;5.20;;
11283;SDS011;5698;47.332;11.180;2022-08-05T13:04:20;7.60;;;5.40;;
11283;SDS011;5698;47.332;11.180;2022-08-05T13:06:48;5.80;;;5.30;;
11283;SDS011;5698;47.332;11.180;2022-08-05T13:09:15;5.80;;;5.27;;
11283;SDS011;5698;47.332;11.180;2022-08-05T13:11:42;6.13;;;5.20;;
11283;SDS011;5698;47.332;11.180;2022-08-05T13:14:18;5.63;;;5.10;;
11283;SDS011;5698;47.332;11.180;2022-08-05T13:16:51;5.47;;;5.07;;
11283;SDS011;5698;47.332;11.180;2022-08-05T13:19:20;6.40;;;5.60;;
11283;SDS011;5698;47.332;11.180;2022-08-05T13:21:49;5.53;;;5.10;;
11283;SDS011;5698;47.332;11.180;2022-08-05T13:24:16;6.10;;;5.53;;
11283;SDS011;5698;47.332;11.180;2022-08-05T13:26:44;5.90;;;5.50;;
11283;SDS011;5698;47.332;11.180;2022-08-05T13:29:11;6.13;;;5.60;;
11283;SDS011;5698;47.332;11.180;2022-08-05T13:31:41;6.33;;;5.43;;
11283;SDS011;5698;47.332;11.180;2022-08-05T13:34:08;6.63;;;5.67;;
11283;SDS011;5698;47.332;11.180;2022-08-05T13:36:35;6.60;;;5.50;;
11283;SDS011;5698;47.332;11.180;2022-08-05T13:39:03;8.27;;;6.23;;
11283;SDS011;5698;47.332;11.180;2022-08-05T13:41:31;7.80;;;6.30;;
11283;SDS011;5698;47.332;11.180;2022-08-05T13:43:58;7.20;;;6.43;;
11283;SDS011;5698;47.332;11.180;2022-08-05T13:46:25;6.67;;;6.07;;
11283;SDS011;5698;47.332;11.180;2022-08-05T13:48:54;6.63;;;5.93;;
11283;SDS011;5698;47.332;11.180;2022-08-05T13:51:25;7.13;;;6.43;;
11283;SDS011;5698;47.332;11.180;2022-08-05T13:53:56;8.33;;;6.80;;
11283;SDS011;5698;47.332;11.180;2022-08-05T13:56:24;8.27;;;7.07;;
11283;SDS011;5698;47.332;11.180;2022-08-05T13:58:51;9.43;;;6.77;;
11283;SDS011;5698;47.332;11.180;2022-08-05T14:01:18;8.23;;;6.83;;
11283;SDS011;5698;47.332;11.180;2022-08-05T14:03:46;7.87;;;6.40;;
11283;SDS011;5698;47.332;11.180;2022-08-05T14:06:35;7.17;;;6.43;;
11283;SDS011;5698;47.332;11.180;2022-08-05T14:09:03;7.50;;;6.47;;
11283;SDS011;5698;47.332;11.180;2022-08-05T14:11:30;6.73;;;6.07;;
11283;SDS011;5698;47.332;11.180;2022-08-05T14:13:57;8.00;;;6.47;;
11283;SDS011;5698;47.332;11.180;2022-08-05T14:16:24;9.33;;;6.30;;
11283;SDS011;5698;47.332;11.180;2022-08-05T14:18:51;7.37;;;6.47;;
11283;SDS011;5698;47.332;11.180;2022-08-05T14:21:18;6.67;;;5.87;;
11283;SDS011;5698;47.332;11.180;2022-08-05T14:23:47;5.53;;;5.07;;
11283;SDS011;5698;47.332;11.180;2022-08-05T14:26:14;6.67;;;6.03;;
11283;SDS011;5698;47.332;11.180;2022-08-05T14:28:41;5.77;;;5.27;;
11283;SDS011;5698;47.332;11.180;2022-08-05T14:31:08;6.07;;;5.57;;
11283;SDS011;5698;47.332;11.180;2022-08-05T14:33:36;7.50;;;5.80;;
11283;SDS011;5698;47.332;11.180;2022-08-05T14:36:03;6.53;;;5.93;;
11283;SDS011;5698;47.332;11.180;2022-08-05T14:38:30;7.03;;;6.10;;
11283;SDS011;5698;47.332;11.180;2022-08-05T14:40:59;6.50;;;5.93;;
11283;SDS011;5698;47.332;11.180;2022-08-05T14:43:27;6.80;;;6.07;;
11283;SDS011;5698;47.332;11.180;2022-08-05T14:45:54;6.20;;;5.60;;
11283;SDS011;5698;47.332;11.180;2022-08-05T14:48:21;6.60;;;5.80;;
11283;SDS011;5698;47.332;11.180;2022-08-05T14:50:48;6.67;;;5.50;;
11283;SDS011;5698;47.332;11.180;2022-08-05T14:53:15;5.90;;;5.30;;
11283;SDS011;5698;47.332;11.180;2022-08-05T14:55:42;6.30;;;5.50;;
11283;SDS011;5698;47.332;11.180;2022-08-05T14:58:11;6.00;;;5.40;;
11283;SDS011;5698;47.332;11.180;2022-08-05T15:00:38;6.53;;;5.83;;
11283;SDS011;5698;47.332;11.180;2022-08-05T15:03:05;5.27;;;4.77;;
11283;SDS011;5698;47.332;11.180;2022-08-05T15:05:33;5.77;;;5.30;;
11283;SDS011;5698;47.332;11.180;2022-08-05T15:08:00;5.97;;;5.10;;
11283;SDS011;5698;47.332;11.180;2022-08-05T15:10:27;6.07;;;5.53;;
11283;SDS011;5698;47.332;11.180;2022-08-05T15:12:55;6.23;;;5.70;;
11283;SDS011;5698;47.332;11.180;2022-08-05T15:15:25;5.97;;;5.20;;
11283;SDS011;5698;47.332;11.180;2022-08-05T15:17:53;5.70;;;5.20;;
11283;SDS011;5698;47.332;11.180;2022-08-05T15:20:20;6.30;;;5.40;;
11283;SDS011;5698;47.332;11.180;2022-08-05T15:22:48;5.73;;;5.23;;